Time;durP1;ratioP1;P1;durP2;ratioP2;P2;SDS_P1;SDS_P2;PMS_P1;PMS_P2;Temp;Humidity;BMP_temperature;BMP_pressure;BME280_temperature;BME280_humidity;BME280_pressure;Samples;Min_cycle;Max_cycle;Signal;HPM_P1;HPM_P2
2022/04/06 00:00:53;;;;;;;13.40;7.97;;;9.70;99.90;;;;;;5057045;28;20456;-58
2022/04/06 00:03:20;;;;;;;8.20;6.50;;;9.70;99.90;;;;;;5057366;28;20425;-59
2022/04/06 00:05:46;;;;;;;9.90;7.10;;;9.70;99.90;;;;;;5057235;28;20510;-60
2022/04/06 00:08:13;;;;;;;11.10;7.20;;;9.70;99.90;;;;;;5057530;28;20452;-59
2022/04/06 00:10:41;;;;;;;10.33;7.10;;;9.70;99.90;;;;;;5057681;28;20467;-58
2022/04/06 00:13:09;;;;;;;8.00;6.03;;;9.70;99.90;;;;;;5057405;28;20548;-60
2022/04/06 00:15:36;;;;;;;9.40;6.30;;;9.80;99.90;;;;;;5058093;28;20455;-56
2022/04/06 00:18:03;;;;;;;7.40;5.60;;;9.80;99.90;;;;;;5057862;28;20476;-58
2022/04/06 00:20:30;;;;;;;9.50;6.10;;;9.80;99.90;;;;;;5058204;28;20438;-59
2022/04/06 00:22:57;;;;;;;7.10;5.50;;;9.90;99.90;;;;;;5058133;28;20436;-59
2022/04/06 00:25:24;;;;;;;8.03;5.77;;;9.80;99.90;;;;;;5057998;28;20468;-60
2022/04/06 00:27:52;;;;;;;9.93;6.00;;;9.90;99.90;;;;;;5057677;28;20475;-57
2022/04/06 00:30:18;;;;;;;10.67;6.23;;;9.90;99.90;;;;;;5057119;28;20440;-58
2022/04/06 00:32:45;;;;;;;7.20;4.97;;;9.90;99.90;;;;;;5057523;28;20436;-59
2022/04/06 00:35:29;;;;;;;6.60;5.60;;;9.80;99.90;;;;;;5056047;28;20755;-57
2022/04/06 00:37:56;;;;;;;8.83;5.37;;;9.80;99.90;;;;;;5056383;28;20424;-57
2022/04/06 00:40:23;;;;;;;8.10;5.97;;;9.80;99.90;;;;;;5056296;28;20503;-60
2022/04/06 00:42:53;;;;;;;8.10;6.20;;;9.90;99.90;;;;;;5056568;28;20456;-61
2022/04/06 00:45:20;;;;;;;9.63;6.60;;;9.90;99.90;;;;;;5056058;28;20495;-60
2022/04/06 00:47:47;;;;;;;8.97;5.73;;;9.80;99.90;;;;;;5056695;28;20424;-61
2022/04/06 00:50:13;;;;;;;8.20;6.50;;;9.80;99.90;;;;;;5056540;28;20475;-59
2022/04/06 00:52:42;;;;;;;8.63;6.50;;;9.80;99.90;;;;;;5056100;28;20503;-56
2022/04/06 00:55:11;;;;;;;9.27;6.10;;;9.80;99.90;;;;;;5056715;28;20438;-57
2022/04/06 00:57:40;;;;;;;9.33;6.40;;;9.80;99.90;;;;;;5056479;28;20483;-60
2022/04/06 01:00:10;;;;;;;11.20;7.83;;;9.80;99.90;;;;;;5056646;28;20540;-58
2022/04/06 01:02:37;;;;;;;12.50;7.80;;;9.80;99.90;;;;;;5057075;28;20460;-61
2022/04/06 01:05:04;;;;;;;10.43;8.17;;;9.80;99.90;;;;;;5056576;28;20460;-60
2022/04/06 01:07:31;;;;;;;11.07;6.23;;;9.80;99.90;;;;;;5056918;28;20479;-56
2022/04/06 01:09:58;;;;;;;8.50;5.93;;;9.80;99.90;;;;;;5056158;28;20412;-57
2022/04/06 01:12:27;;;;;;;10.40;7.70;;;9.80;99.90;;;;;;5055545;28;20448;-61
2022/04/06 01:14:55;;;;;;;8.90;6.70;;;9.70;99.90;;;;;;5056153;28;20444;-60
2022/04/06 01:17:23;;;;;;;12.97;7.20;;;9.80;99.90;;;;;;5056132;28;20439;-61
2022/04/06 01:19:51;;;;;;;9.97;7.50;;;9.70;99.90;;;;;;5055213;28;20502;-61
2022/04/06 01:22:20;;;;;;;11.77;8.03;;;9.70;99.90;;;;;;5056102;28;20527;-59
2022/04/06 01:24:48;;;;;;;9.67;7.57;;;9.80;99.90;;;;;;5055621;28;20488;-58
2022/04/06 01:27:16;;;;;;;11.13;8.07;;;9.80;99.90;;;;;;5055459;28;20452;-57
2022/04/06 01:29:43;;;;;;;14.00;7.90;;;9.80;99.90;;;;;;5055251;28;20451;-57
2022/04/06 01:32:13;;;;;;;12.67;7.73;;;9.80;99.90;;;;;;5055207;28;20429;-59
2022/04/06 01:34:40;;;;;;;12.63;7.20;;;9.80;99.90;;;;;;5055875;28;20436;-57
2022/04/06 01:37:08;;;;;;;9.70;7.47;;;9.80;99.90;;;;;;5055281;28;20436;-56
2022/04/06 01:39:37;;;;;;;13.37;7.60;;;9.90;99.90;;;;;;5055573;28;20516;-61
2022/04/06 01:42:06;;;;;;;13.60;7.90;;;9.80;99.90;;;;;;5055428;28;20474;-54
2022/04/06 01:44:33;;;;;;;9.37;7.10;;;9.80;99.90;;;;;;5055906;28;20432;-58
2022/04/06 01:47:00;;;;;;;9.07;7.23;;;9.80;99.90;;;;;;5055160;28;20464;-61
2022/04/06 01:52:17;;;;;;;10.47;7.40;;;9.90;99.90;;;;;;5055708;28;20467;-55
2022/04/06 01:54:48;;;;;;;9.43;7.40;;;9.90;99.90;;;;;;5055446;28;20462;-58
2022/04/06 01:57:15;;;;;;;11.53;8.10;;;9.90;99.90;;;;;;5056465;28;20433;-51
2022/04/06 01:59:43;;;;;;;10.93;8.27;;;9.90;99.90;;;;;;5056153;28;20441;-59
2022/04/06 02:02:11;;;;;;;11.67;6.77;;;9.90;99.90;;;;;;5055566;28;20443;-59
2022/04/06 02:04:38;;;;;;;11.80;7.43;;;9.90;99.90;;;;;;5055308;28;20464;-60
2022/04/06 02:07:05;;;;;;;13.57;9.10;;;10.00;99.90;;;;;;5055686;28;20448;-58
2022/04/06 02:09:32;;;;;;;12.13;7.67;;;10.00;99.90;;;;;;5054995;28;20556;-59
2022/04/06 02:12:01;;;;;;;10.77;7.77;;;10.00;99.90;;;;;;5055204;28;20432;-57
2022/04/06 02:14:29;;;;;;;12.00;8.10;;;9.90;99.90;;;;;;5055367;28;20471;-58
2022/04/06 02:19:24;;;;;;;12.00;7.77;;;10.00;99.90;;;;;;5033561;28;20481;-54
2022/04/06 02:21:50;;;;;;;10.33;7.77;;;10.00;99.90;;;;;;5035351;28;20445;-57
2022/04/06 02:24:18;;;;;;;10.90;7.50;;;10.00;99.90;;;;;;5035483;28;20479;-56
2022/04/06 02:26:45;;;;;;;13.70;7.90;;;9.90;99.90;;;;;;5038911;28;20484;-57
2022/04/06 02:29:13;;;;;;;10.27;6.67;;;9.90;99.90;;;;;;5039113;28;20504;-55
2022/04/06 02:31:40;;;;;;;9.93;7.40;;;9.90;99.90;;;;;;5038832;28;20499;-56
2022/04/06 02:34:07;;;;;;;11.90;8.07;;;9.90;99.90;;;;;;5039144;28;20487;-55
2022/04/06 02:36:34;;;;;;;12.63;8.30;;;9.90;99.90;;;;;;5039348;28;20449;-59
2022/04/06 02:39:01;;;;;;;13.20;8.83;;;9.90;99.90;;;;;;5039334;28;20453;-59
2022/04/06 02:41:28;;;;;;;12.17;7.90;;;9.90;99.90;;;;;;5039041;28;20441;-56
2022/04/06 02:43:55;;;;;;;12.57;8.33;;;9.90;99.90;;;;;;5038709;28;20437;-57
2022/04/06 02:46:23;;;;;;;9.70;7.60;;;9.90;99.90;;;;;;5038646;28;20456;-58
2022/04/06 02:48:50;;;;;;;11.77;8.13;;;9.90;99.90;;;;;;5038936;28;20445;-54
2022/04/06 02:51:16;;;;;;;9.90;7.13;;;9.80;99.90;;;;;;5038990;28;20460;-59
2022/04/06 02:53:43;;;;;;;9.80;6.63;;;9.90;99.90;;;;;;5038807;28;20460;-52
2022/04/06 02:56:10;;;;;;;12.83;8.90;;;9.90;99.90;;;;;;5038453;28;20463;-58
2022/04/06 02:58:39;;;;;;;10.60;7.87;;;9.90;99.90;;;;;;5038924;28;20441;-53
2022/04/06 03:01:06;;;;;;;12.27;6.97;;;9.90;99.90;;;;;;5038349;28;20437;-58
2022/04/06 03:03:34;;;;;;;12.50;7.70;;;9.90;99.90;;;;;;5038674;28;20503;-54
2022/04/06 03:06:02;;;;;;;10.50;7.13;;;9.90;99.90;;;;;;5038577;28;20503;-57
2022/04/06 03:08:29;;;;;;;9.90;7.00;;;9.80;99.90;;;;;;5038431;28;20495;-59
2022/04/06 03:10:56;;;;;;;10.17;7.30;;;9.90;99.90;;;;;;5039119;28;20465;-53
2022/04/06 03:13:25;;;;;;;9.00;7.00;;;9.90;99.90;;;;;;5038595;28;20488;-57
2022/04/06 03:15:52;;;;;;;9.10;6.27;;;9.90;99.90;;;;;;5038356;28;20479;-57
2022/04/06 03:18:21;;;;;;;9.80;7.00;;;9.90;99.90;;;;;;5038348;28;20467;-56
2022/04/06 03:20:49;;;;;;;10.23;7.40;;;9.90;99.90;;;;;;5038212;28;20449;-56
2022/04/06 03:23:16;;;;;;;11.10;7.53;;;9.90;99.90;;;;;;5037940;28;20460;-59
2022/04/06 03:25:43;;;;;;;10.30;7.23;;;9.80;99.90;;;;;;5038126;28;20512;-59
2022/04/06 03:28:09;;;;;;;10.27;6.80;;;9.90;99.90;;;;;;5038248;28;20455;-55
2022/04/06 03:30:37;;;;;;;9.20;6.43;;;9.80;99.90;;;;;;5038274;28;20445;-58
2022/04/06 03:33:04;;;;;;;10.00;7.07;;;9.80;99.90;;;;;;5038199;28;20461;-57
2022/04/06 03:35:31;;;;;;;8.43;6.60;;;9.80;99.90;;;;;;5037698;28;20457;-55
2022/04/06 03:37:59;;;;;;;10.13;7.00;;;9.80;99.90;;;;;;5038282;28;20478;-55
2022/04/06 03:40:25;;;;;;;8.77;7.00;;;9.90;99.90;;;;;;5038166;28;20494;-59
2022/04/06 03:42:53;;;;;;;10.07;7.17;;;9.80;99.90;;;;;;5037474;28;20472;-60
2022/04/06 03:45:20;;;;;;;12.10;5.93;;;9.80;99.90;;;;;;5038347;28;20452;-55
2022/04/06 03:47:47;;;;;;;9.83;6.20;;;9.90;99.90;;;;;;5037876;28;20463;-57
2022/04/06 03:50:14;;;;;;;8.70;6.20;;;9.90;99.90;;;;;;5038118;28;20445;-55
2022/04/06 03:52:41;;;;;;;8.40;5.23;;;9.90;99.90;;;;;;5038146;28;20472;-59
2022/04/06 03:55:11;;;;;;;10.60;6.93;;;9.90;99.90;;;;;;5038312;28;20461;-57
2022/04/06 03:57:39;;;;;;;14.23;6.30;;;9.90;99.90;;;;;;5038097;28;20441;-52
2022/04/06 04:00:08;;;;;;;6.57;5.40;;;9.90;99.90;;;;;;5037878;28;20469;-60
2022/04/06 04:02:35;;;;;;;8.63;7.00;;;9.90;99.90;;;;;;5037825;28;20567;-49
2022/04/06 04:05:04;;;;;;;8.73;5.13;;;9.90;99.90;;;;;;5038003;28;20445;-57
2022/04/06 04:07:31;;;;;;;8.87;5.63;;;9.80;99.90;;;;;;5037924;28;20465;-55
2022/04/06 04:09:59;;;;;;;6.73;5.60;;;9.80;99.90;;;;;;5037633;28;20552;-54
2022/04/06 04:12:27;;;;;;;9.17;6.50;;;9.80;99.90;;;;;;5037238;28;20469;-59
2022/04/06 04:14:53;;;;;;;11.97;5.60;;;9.80;99.90;;;;;;5037247;28;20837;-59
2022/04/06 04:17:20;;;;;;;11.43;6.27;;;9.70;99.90;;;;;;5037114;28;20504;-69
2022/04/06 04:19:47;;;;;;;8.33;5.83;;;9.70;99.90;;;;;;5037982;28;20436;-57
2022/04/06 04:22:14;;;;;;;8.60;6.03;;;9.80;99.90;;;;;;5038056;28;20475;-53
2022/04/06 04:24:40;;;;;;;24.00;6.60;;;9.80;99.90;;;;;;5037489;28;20433;-60
2022/04/06 04:27:07;;;;;;;8.60;5.70;;;9.80;99.90;;;;;;5036624;28;20538;-60
2022/04/06 04:29:37;;;;;;;9.97;6.13;;;9.80;99.90;;;;;;5037430;28;20461;-59
2022/04/06 04:32:05;;;;;;;10.30;6.90;;;9.80;99.90;;;;;;5037736;28;20511;-56
2022/04/06 04:34:31;;;;;;;9.60;6.20;;;9.80;99.90;;;;;;5037119;28;20465;-56
2022/04/06 04:36:58;;;;;;;10.70;6.10;;;9.80;99.90;;;;;;5037466;28;20431;-67
2022/04/06 04:39:25;;;;;;;9.10;6.23;;;9.70;99.90;;;;;;5037364;28;20483;-55
2022/04/06 04:41:52;;;;;;;9.00;6.30;;;9.70;99.90;;;;;;5037102;28;20429;-54
2022/04/06 04:44:18;;;;;;;19.40;6.90;;;9.80;99.90;;;;;;5036969;28;20476;-59
2022/04/06 04:46:46;;;;;;;8.20;5.80;;;9.70;99.90;;;;;;5036285;28;20473;-60
2022/04/06 04:49:13;;;;;;;14.50;6.60;;;9.80;99.90;;;;;;5036240;28;20472;-53
2022/04/06 04:51:40;;;;;;;13.33;6.93;;;9.70;99.90;;;;;;5036124;28;20528;-58
2022/04/06 04:54:07;;;;;;;9.90;6.70;;;9.70;99.90;;;;;;5036425;28;20445;-59
2022/04/06 04:56:33;;;;;;;11.60;6.90;;;9.80;99.90;;;;;;5036534;28;20469;-56
2022/04/06 04:59:00;;;;;;;10.67;7.20;;;9.80;99.90;;;;;;5036589;28;20480;-55
2022/04/06 05:01:28;;;;;;;11.13;6.57;;;9.70;99.90;;;;;;5036291;28;20469;-51
2022/04/06 05:03:55;;;;;;;10.73;7.10;;;9.70;99.90;;;;;;5036122;28;20430;-57
2022/04/06 05:06:22;;;;;;;14.00;9.10;;;9.70;99.90;;;;;;5035737;28;20492;-57
2022/04/06 05:08:49;;;;;;;11.40;7.30;;;9.70;99.90;;;;;;5036826;28;20668;-60
2022/04/06 05:11:21;;;;;;;11.43;7.77;;;9.80;99.90;;;;;;5037216;28;20493;-53
2022/04/06 05:13:48;;;;;;;10.20;6.60;;;9.80;99.90;;;;;;5036900;28;20421;-60
2022/04/06 05:16:15;;;;;;;13.03;6.90;;;9.80;99.90;;;;;;5036741;28;20468;-54
2022/04/06 05:18:41;;;;;;;9.03;5.63;;;9.80;99.90;;;;;;5035267;28;20465;-55
2022/04/06 05:21:09;;;;;;;15.33;7.10;;;9.80;99.90;;;;;;5035596;28;20446;-59
2022/04/06 05:23:36;;;;;;;11.27;7.20;;;9.70;99.90;;;;;;5035386;28;20516;-60
2022/04/06 05:26:03;;;;;;;11.27;7.33;;;9.70;99.90;;;;;;5035102;28;20572;-56
2022/04/06 05:28:30;;;;;;;9.93;7.10;;;9.70;99.90;;;;;;5035021;28;20449;-57
2022/04/06 05:30:58;;;;;;;12.90;7.00;;;9.70;99.90;;;;;;5035868;28;20426;-58
2022/04/06 05:33:25;;;;;;;12.63;8.20;;;9.70;99.90;;;;;;5035893;28;20447;-54
2022/04/06 05:35:52;;;;;;;12.70;6.50;;;9.70;99.90;;;;;;5035542;28;20457;-56
2022/04/06 05:38:20;;;;;;;9.10;7.73;;;9.70;99.90;;;;;;5035974;28;20429;-59
2022/04/06 05:40:47;;;;;;;9.90;6.93;;;9.70;99.90;;;;;;5035573;28;20500;-58
2022/04/06 05:43:15;;;;;;;13.50;7.27;;;9.80;99.90;;;;;;5036062;28;20457;-56
2022/04/06 05:45:42;;;;;;;13.33;7.53;;;9.80;99.90;;;;;;5035659;28;20473;-58
2022/04/06 05:48:10;;;;;;;8.37;6.30;;;9.80;99.90;;;;;;5035713;28;20467;-58
2022/04/06 05:50:38;;;;;;;10.40;7.43;;;9.80;99.90;;;;;;5032387;28;20464;-60
2022/04/06 05:53:05;;;;;;;15.77;7.20;;;9.80;99.90;;;;;;5021001;28;20445;-59
2022/04/06 05:55:33;;;;;;;10.37;6.67;;;9.90;99.90;;;;;;5019921;28;20456;-59
2022/04/06 05:58:02;;;;;;;11.33;7.17;;;9.90;99.90;;;;;;5019345;28;20455;-56
2022/04/06 06:00:30;;;;;;;19.00;7.20;;;9.90;99.90;;;;;;5019583;28;20457;-59
2022/04/06 06:02:57;;;;;;;13.00;7.37;;;10.00;99.90;;;;;;5019793;28;20468;-60
2022/04/06 06:05:24;;;;;;;14.20;7.30;;;10.10;99.90;;;;;;5018177;28;20502;-60
2022/04/06 06:07:50;;;;;;;15.90;8.10;;;10.20;99.90;;;;;;5018930;28;20500;-59
2022/04/06 06:10:17;;;;;;;11.23;7.03;;;10.20;99.90;;;;;;5018829;28;20444;-57
2022/04/06 06:12:47;;;;;;;10.70;7.10;;;10.20;99.90;;;;;;5018906;28;20442;-60
2022/04/06 06:15:14;;;;;;;12.80;7.60;;;10.30;99.90;;;;;;5018824;28;20445;-61
2022/04/06 06:17:41;;;;;;;11.33;7.93;;;10.30;99.90;;;;;;5020254;28;20556;-61
2022/04/06 06:20:09;;;;;;;12.23;7.47;;;10.30;99.90;;;;;;5021142;28;20777;-61
2022/04/06 06:22:36;;;;;;;10.40;6.43;;;10.30;99.90;;;;;;5020060;28;20453;-59
2022/04/06 06:25:04;;;;;;;14.90;9.33;;;10.40;99.90;;;;;;5018633;28;20469;-61
2022/04/06 06:27:37;;;;;;;28.03;9.27;;;10.40;99.90;;;;;;5020901;28;20535;-62
2022/04/06 06:30:06;;;;;;;10.00;7.57;;;10.30;99.90;;;;;;5035259;28;20496;-58
2022/04/06 06:32:33;;;;;;;13.20;7.37;;;10.30;99.90;;;;;;5028050;28;20544;-59
2022/04/06 06:34:59;;;;;;;17.60;8.50;;;10.40;99.90;;;;;;5025005;28;20473;-58
2022/04/06 06:37:26;;;;;;;12.70;8.63;;;10.70;99.90;;;;;;5026105;28;20444;-59
2022/04/06 06:39:54;;;;;;;15.37;7.60;;;10.80;99.90;;;;;;5025785;28;20437;-60
2022/04/06 06:42:21;;;;;;;18.33;9.00;;;10.70;99.90;;;;;;5025181;28;20430;-60
2022/04/06 06:44:48;;;;;;;14.43;7.77;;;10.70;99.90;;;;;;5025605;28;20457;-58
2022/04/06 06:47:16;;;;;;;14.10;9.80;;;10.80;99.90;;;;;;5023559;28;20789;-58
2022/04/06 06:49:46;;;;;;;14.40;10.17;;;10.80;99.90;;;;;;5023451;28;20461;-59
2022/04/06 06:52:13;;;;;;;15.80;10.03;;;10.90;99.90;;;;;;5024183;28;20473;-59
2022/04/06 06:54:40;;;;;;;19.13;10.40;;;10.80;99.90;;;;;;5023736;28;20445;-58
2022/04/06 06:57:07;;;;;;;14.60;9.97;;;10.80;99.90;;;;;;5023194;28;20477;-58
2022/04/06 06:59:34;;;;;;;15.93;9.63;;;10.80;99.90;;;;;;5023547;28;20461;-57
2022/04/06 07:02:00;;;;;;;15.30;9.60;;;10.80;99.90;;;;;;5023482;28;20496;-61
2022/04/06 07:04:28;;;;;;;19.63;10.90;;;10.80;99.90;;;;;;5023521;28;20531;-59
2022/04/06 07:06:55;;;;;;;16.07;11.20;;;10.70;99.90;;;;;;5023845;28;20481;-59
2022/04/06 07:09:22;;;;;;;18.97;11.73;;;10.60;99.90;;;;;;5024707;28;20951;-59
2022/04/06 07:11:52;;;;;;;21.03;11.30;;;10.60;99.90;;;;;;5027552;28;20441;-59
2022/04/06 07:14:19;;;;;;;17.70;10.43;;;10.70;99.90;;;;;;5026620;28;20477;-56
2022/04/06 07:16:46;;;;;;;17.33;10.70;;;10.70;99.90;;;;;;5028192;28;20449;-60
2022/04/06 07:19:12;;;;;;;16.93;9.17;;;10.80;99.90;;;;;;5026251;28;20486;-59
2022/04/06 07:21:40;;;;;;;18.83;10.30;;;10.80;99.90;;;;;;5026758;28;20448;-60
2022/04/06 07:24:07;;;;;;;14.93;10.27;;;10.90;99.90;;;;;;5025999;28;20523;-61
2022/04/06 07:26:34;;;;;;;15.43;10.60;;;10.90;99.90;;;;;;5025557;28;20465;-59
2022/04/06 07:29:00;;;;;;;15.70;10.30;;;11.00;99.90;;;;;;5026227;28;20445;-60
2022/04/06 07:31:27;;;;;;;16.10;9.57;;;11.10;99.90;;;;;;5025837;28;20469;-58
2022/04/06 07:33:54;;;;;;;13.90;9.20;;;11.30;99.90;;;;;;5026897;28;20449;-62
2022/04/06 07:36:20;;;;;;;18.33;9.00;;;11.30;99.90;;;;;;5017482;28;20472;-62
2022/04/06 07:38:48;;;;;;;17.57;9.40;;;11.30;99.90;;;;;;5017062;28;20888;-59
2022/04/06 07:41:15;;;;;;;12.70;8.30;;;11.30;99.90;;;;;;5018494;28;20503;-62
2022/04/06 07:43:44;;;;;;;13.60;7.70;;;11.30;99.90;;;;;;5017547;28;20503;-58
2022/04/06 07:46:11;;;;;;;21.43;8.83;;;11.30;99.90;;;;;;5017167;28;20457;-58
2022/04/06 07:48:39;;;;;;;20.70;9.60;;;11.30;99.90;;;;;;5017015;28;20461;-59
2022/04/06 07:51:06;;;;;;;13.97;8.53;;;11.30;99.90;;;;;;5018102;28;20472;-60
2022/04/06 07:53:33;;;;;;;13.50;6.90;;;11.40;99.90;;;;;;5017493;28;20445;-60
2022/04/06 07:56:01;;;;;;;12.57;7.53;;;11.40;99.90;;;;;;5019230;28;20480;-58
2022/04/06 07:58:28;;;;;;;15.97;8.00;;;11.50;99.90;;;;;;5017650;28;20472;-57
2022/04/06 08:00:55;;;;;;;13.27;8.50;;;11.60;99.90;;;;;;5018960;28;20442;-57
2022/04/06 08:03:22;;;;;;;14.83;7.93;;;11.80;99.90;;;;;;5021650;28;20464;-59
2022/04/06 08:05:50;;;;;;;10.40;6.23;;;12.00;99.90;;;;;;5025875;28;20828;-59
2022/04/06 08:08:17;;;;;;;14.87;7.20;;;12.20;99.90;;;;;;5025772;28;20472;-54
2022/04/06 08:10:43;;;;;;;11.53;6.70;;;12.40;99.90;;;;;;5020683;28;20456;-59
2022/04/06 08:13:11;;;;;;;11.20;6.67;;;12.60;99.90;;;;;;5020850;28;20464;-59
2022/04/06 08:15:38;;;;;;;13.33;8.00;;;12.80;99.90;;;;;;5019950;28;20469;-60
2022/04/06 08:18:06;;;;;;;13.27;6.87;;;13.00;99.90;;;;;;5020950;28;20449;-57
2022/04/06 08:20:33;;;;;;;12.57;6.73;;;13.20;99.90;;;;;;5023815;28;20492;-59
2022/04/06 08:23:00;;;;;;;10.00;5.97;;;13.20;99.90;;;;;;5021045;28;20448;-59
2022/04/06 08:25:27;;;;;;;9.67;6.03;;;12.90;99.90;;;;;;5019520;28;20891;-59
2022/04/06 08:27:54;;;;;;;8.47;5.50;;;12.80;99.90;;;;;;5019664;28;20476;-60
2022/04/06 08:30:23;;;;;;;13.20;6.67;;;12.80;99.90;;;;;;5019541;28;20544;-56
2022/04/06 08:32:58;;;;;;;7.40;5.90;;;12.70;99.90;;;;;;5019804;28;20477;-59
2022/04/06 08:35:25;;;;;;;8.10;5.50;;;12.70;99.90;;;;;;5019832;28;20448;-59
2022/04/06 08:37:52;;;;;;;9.87;6.63;;;12.70;99.90;;;;;;5019361;28;20473;-58
2022/04/06 08:40:19;;;;;;;11.67;4.90;;;12.70;99.90;;;;;;5019920;28;20455;-58
2022/04/06 08:42:48;;;;;;;14.30;6.67;;;12.60;99.90;;;;;;5019634;28;20951;-58
2022/04/06 08:45:18;;;;;;;9.50;5.43;;;12.50;99.90;;;;;;5020083;28;20524;-60
2022/04/06 08:47:49;;;;;;;8.43;5.00;;;12.30;99.90;;;;;;5022902;28;20485;-59
2022/04/06 08:50:18;;;;;;;9.40;5.07;;;12.20;99.90;;;;;;5019444;28;20501;-58
2022/04/06 08:52:45;;;;;;;9.97;6.10;;;12.10;99.90;;;;;;5019569;28;20456;-61
2022/04/06 08:55:13;;;;;;;12.37;6.50;;;12.10;99.90;;;;;;5022354;28;20898;-61
2022/04/06 08:57:42;;;;;;;13.67;6.80;;;12.10;99.90;;;;;;5022526;28;20453;-59
2022/04/06 09:00:10;;;;;;;6.87;5.00;;;12.10;99.90;;;;;;5020261;28;20480;-61
2022/04/06 09:02:36;;;;;;;12.80;5.73;;;12.10;99.90;;;;;;5012795;28;20433;-58
2022/04/06 09:05:05;;;;;;;13.13;5.30;;;12.10;99.90;;;;;;5020355;28;20484;-60
2022/04/06 09:07:34;;;;;;;9.63;5.83;;;12.20;99.90;;;;;;5021271;28;20562;-61
2022/04/06 09:10:01;;;;;;;10.17;5.40;;;12.20;99.90;;;;;;5021988;28;20456;-64
2022/04/06 09:12:28;;;;;;;9.33;5.80;;;12.30;99.90;;;;;;5020155;28;20453;-60
2022/04/06 09:15:05;;;;;;;12.60;5.23;;;12.30;99.90;;;;;;5020033;28;20445;-61
2022/04/06 09:17:35;;;;;;;10.70;5.40;;;12.30;99.90;;;;;;5019989;28;20965;-60
2022/04/06 09:20:03;;;;;;;8.00;4.97;;;12.40;99.90;;;;;;5019978;28;20496;-60
2022/04/06 09:22:32;;;;;;;11.83;6.10;;;12.40;99.90;;;;;;5021619;28;20560;-61
2022/04/06 09:25:02;;;;;;;14.00;5.47;;;12.40;99.90;;;;;;5023111;28;20445;-62
2022/04/06 09:27:32;;;;;;;10.23;5.80;;;12.40;99.90;;;;;;5020483;28;20493;-59
2022/04/06 09:29:59;;;;;;;6.90;5.47;;;12.50;99.90;;;;;;5018521;28;20483;-59
2022/04/06 09:32:26;;;;;;;14.53;5.37;;;12.60;99.90;;;;;;5018725;28;20480;-61
2022/04/06 09:34:53;;;;;;;15.70;5.80;;;12.70;99.90;;;;;;5018035;28;20544;-61
2022/04/06 09:37:24;;;;;;;11.93;5.20;;;12.80;99.90;;;;;;5018882;28;21078;-60
2022/04/06 09:39:52;;;;;;;11.50;4.77;;;12.80;99.90;;;;;;5018859;28;20472;-57
2022/04/06 09:42:23;;;;;;;7.40;4.87;;;12.80;99.90;;;;;;5018303;28;20503;-60
2022/04/06 09:47:44;;;;;;;20.53;9.93;;;12.90;99.90;;;;;;5017032;28;20455;-47
2022/04/06 09:50:14;;;;;;;16.20;6.43;;;13.00;99.90;;;;;;5038169;28;20455;-45
2022/04/06 09:52:42;;;;;;;7.60;5.20;;;13.00;99.90;;;;;;5032788;28;20417;-48
2022/04/06 09:55:13;;;;;;;7.30;5.30;;;13.00;99.90;;;;;;5036458;28;20448;-48
2022/04/06 09:57:45;;;;;;;7.60;4.67;;;12.90;99.90;;;;;;5037267;28;20434;-48
2022/04/06 10:00:17;;;;;;;12.80;5.60;;;12.90;99.90;;;;;;5037952;28;20425;-46
2022/04/06 10:02:48;;;;;;;10.80;6.87;;;12.80;99.90;;;;;;5037620;28;20433;-49
2022/04/06 10:05:18;;;;;;;11.10;6.17;;;12.90;99.90;;;;;;5038100;28;20412;-49
2022/04/06 10:07:45;;;;;;;12.00;6.67;;;12.80;99.90;;;;;;5038226;28;20477;-50
2022/04/06 10:10:14;;;;;;;16.00;6.63;;;12.70;99.90;;;;;;5038072;28;20425;-48
2022/04/06 10:12:41;;;;;;;9.13;6.10;;;12.80;99.90;;;;;;5037827;28;20453;-49
2022/04/06 10:15:09;;;;;;;11.43;5.87;;;12.80;99.90;;;;;;5038076;28;20417;-49
2022/04/06 10:17:38;;;;;;;10.07;5.70;;;12.90;99.90;;;;;;5037776;28;20457;-47
2022/04/06 10:20:16;;;;;;;6.47;4.37;;;12.90;99.90;;;;;;5038046;28;20493;-45
2022/04/06 10:22:59;;;;;;;7.03;5.13;;;12.80;99.90;;;;;;5037984;28;20464;-46
2022/04/06 10:25:37;;;;;;;14.37;5.40;;;12.50;99.90;;;;;;5038142;28;20500;-44
2022/04/06 10:28:13;;;;;;;7.53;5.00;;;12.50;99.90;;;;;;5038287;28;20440;-49
2022/04/06 10:30:40;;;;;;;7.47;5.17;;;12.50;99.90;;;;;;5037996;28;20436;-46
2022/04/06 10:33:23;;;;;;;9.47;4.67;;;12.50;99.90;;;;;;5403289;22;20484;-58
2022/04/06 10:36:10;;;;;;;8.50;5.60;;;12.40;99.90;;;;;;5032751;28;20517;-60
2022/04/06 10:38:45;;;;;;;9.63;5.40;;;12.40;99.90;;;;;;5018153;28;20457;-61
2022/04/06 10:41:14;;;;;;;12.33;6.00;;;12.40;99.90;;;;;;5018350;28;20477;-63
2022/04/06 10:43:50;;;;;;;6.97;3.83;;;12.40;99.90;;;;;;5018615;28;20459;-62
2022/04/06 10:46:21;;;;;;;10.53;6.37;;;12.50;99.90;;;;;;5020345;28;20456;-63
2022/04/06 10:48:57;;;;;;;7.23;4.53;;;12.50;99.90;;;;;;5021886;28;20568;-65
2022/04/06 10:51:30;;;;;;;6.63;5.03;;;12.60;99.90;;;;;;5024613;28;20476;-62
2022/04/06 10:54:00;;;;;;;8.83;4.43;;;12.80;99.90;;;;;;5041431;28;20451;-64
2022/04/06 10:56:52;;;;;;;5.53;4.57;;;13.10;99.90;;;;;;5041311;28;20521;-63
2022/04/06 10:59:20;;;;;;;11.80;5.30;;;13.30;99.90;;;;;;5021017;28;20464;-62
2022/04/06 11:01:48;;;;;;;11.43;5.20;;;13.60;99.90;;;;;;5041173;28;20466;-63
2022/04/06 11:04:22;;;;;;;5.83;4.70;;;13.80;99.90;;;;;;5039443;28;20472;-63
2022/04/06 11:06:56;;;;;;;15.87;7.17;;;13.70;99.90;;;;;;5017001;28;20763;-63
2022/04/06 11:12:17;;;;;;;7.47;5.10;;;13.50;99.90;;;;;;5027437;28;20427;-64
2022/04/06 11:14:46;;;;;;;10.10;4.67;;;13.40;99.90;;;;;;5020746;28;20472;-65
2022/04/06 11:17:37;;;;;;;8.20;4.80;;;13.30;99.90;;;;;;5018269;28;20787;-62
2022/04/06 11:20:07;;;;;;;8.73;4.50;;;13.20;99.90;;;;;;5021676;28;20471;-62
2022/04/06 11:22:34;;;;;;;6.57;3.87;;;13.10;99.90;;;;;;5021227;28;20425;-62
2022/04/06 11:25:02;;;;;;;8.10;4.40;;;13.10;99.90;;;;;;5021556;28;20539;-64
2022/04/06 11:27:32;;;;;;;8.63;5.03;;;13.00;99.90;;;;;;5021398;28;20460;-63
2022/04/06 11:30:03;;;;;;;10.87;5.30;;;12.90;99.90;;;;;;5021253;28;20445;-62
2022/04/06 11:32:30;;;;;;;9.40;5.10;;;12.90;99.90;;;;;;5020676;28;20483;-62
2022/04/06 11:35:01;;;;;;;10.37;5.60;;;12.90;99.90;;;;;;5020605;28;20947;-64
2022/04/06 11:37:31;;;;;;;11.43;5.13;;;13.00;99.90;;;;;;5021069;28;20496;-64
2022/04/06 11:39:59;;;;;;;6.60;4.83;;;12.90;99.90;;;;;;5021087;28;20544;-62
2022/04/06 11:42:26;;;;;;;12.60;4.97;;;12.90;99.90;;;;;;5020624;28;20465;-61
2022/04/06 11:44:55;;;;;;;8.83;4.33;;;12.80;99.90;;;;;;5003515;28;20448;-60
2022/04/06 11:47:32;;;;;;;10.03;4.73;;;12.80;99.90;;;;;;5020735;28;20476;-63
2022/04/06 11:50:03;;;;;;;7.90;4.73;;;12.80;99.90;;;;;;5020718;28;20483;-62
2022/04/06 11:52:30;;;;;;;6.97;4.20;;;12.70;99.90;;;;;;5021285;28;20445;-63
2022/04/06 11:54:57;;;;;;;7.30;4.87;;;12.60;99.90;;;;;;5020887;28;20472;-61
2022/04/06 11:57:36;;;;;;;7.53;4.50;;;12.60;99.90;;;;;;5020341;28;20527;-61
2022/04/06 12:00:06;;;;;;;8.60;4.33;;;12.50;99.90;;;;;;5020221;28;20532;-62
2022/04/06 12:02:52;;;;;;;6.70;4.37;;;12.40;99.90;;;;;;5024338;28;20437;-62
2022/04/06 12:05:20;;;;;;;8.53;5.23;;;12.40;99.90;;;;;;5023892;28;20457;-60
2022/04/06 12:07:47;;;;;;;5.73;4.10;;;12.30;99.90;;;;;;5028690;28;20467;-60
2022/04/06 12:10:15;;;;;;;8.00;4.20;;;12.30;99.90;;;;;;5025938;28;20433;-63
2022/04/06 12:12:42;;;;;;;7.53;4.33;;;12.20;99.90;;;;;;5024747;28;20536;-59
2022/04/06 12:15:11;;;;;;;7.23;4.63;;;12.20;99.90;;;;;;5035516;28;20440;-62
2022/04/06 12:17:39;;;;;;;5.93;4.07;;;12.20;99.90;;;;;;5043534;28;20472;-64
2022/04/06 12:20:28;;;;;;;8.43;5.00;;;12.30;99.90;;;;;;5043325;28;20475;-61
2022/04/06 12:23:02;;;;;;;15.87;5.07;;;12.30;99.90;;;;;;5037502;28;20480;-62
2022/04/06 12:25:33;;;;;;;12.53;4.10;;;12.30;99.90;;;;;;5043753;28;20447;-61
2022/04/06 12:28:18;;;;;;;5.27;4.00;;;12.40;99.90;;;;;;5042933;28;20479;-61
2022/04/06 12:31:01;;;;;;;7.63;4.23;;;12.40;99.90;;;;;;5042895;28;20511;-64
2022/04/06 12:33:46;;;;;;;7.37;4.50;;;12.40;99.90;;;;;;5042877;28;20911;-58
2022/04/06 12:36:15;;;;;;;8.50;5.03;;;12.40;99.90;;;;;;5042079;28;20436;-63
2022/04/06 12:38:44;;;;;;;6.60;4.27;;;12.30;99.90;;;;;;5039685;28;20451;-62
2022/04/06 12:41:12;;;;;;;5.17;4.67;;;12.30;99.90;;;;;;5022626;28;20476;-65
2022/04/06 12:43:40;;;;;;;8.23;4.67;;;12.40;99.90;;;;;;5021599;28;20437;-63
2022/04/06 12:46:08;;;;;;;9.10;4.77;;;12.40;99.90;;;;;;5020731;28;20490;-64
2022/04/06 12:48:38;;;;;;;6.23;3.83;;;12.40;99.90;;;;;;5022099;28;20481;-62
2022/04/06 12:51:21;;;;;;;6.03;4.27;;;12.40;99.90;;;;;;5022496;28;20511;-63
2022/04/06 12:53:50;;;;;;;8.13;5.10;;;12.40;99.90;;;;;;5022826;28;20479;-59
2022/04/06 12:56:22;;;;;;;9.93;5.10;;;12.30;99.90;;;;;;5022833;28;20456;-62
2022/04/06 12:59:08;;;;;;;6.40;4.77;;;12.20;99.90;;;;;;5023179;28;20433;-62
2022/04/06 13:01:44;;;;;;;6.80;4.03;;;12.20;99.90;;;;;;5023040;28;20468;-63
2022/04/06 13:04:13;;;;;;;7.33;5.20;;;12.20;99.90;;;;;;5023475;28;20504;-62